sensor_id;sensor_type;location;lat;lon;timestamp;P1;durP1;ratioP1;P2;durP2;ratioP2
32096;SDS011;18610;49.916;8.284;2023-12-22T00:01:08;1.02;;;0.93;;
32096;SDS011;18610;49.916;8.284;2023-12-22T00:03:36;1.92;;;0.60;;
32096;SDS011;18610;49.916;8.284;2023-12-22T00:06:03;0.60;;;0.60;;
32096;SDS011;18610;49.916;8.284;2023-12-22T00:08:30;0.47;;;0.47;;
32096;SDS011;18610;49.916;8.284;2023-12-22T00:10:58;0.77;;;0.52;;
32096;SDS011;18610;49.916;8.284;2023-12-22T00:13:25;3.97;;;0.55;;
32096;SDS011;18610;49.916;8.284;2023-12-22T00:15:52;0.98;;;0.85;;
32096;SDS011;18610;49.916;8.284;2023-12-22T00:18:18;1.90;;;0.43;;
32096;SDS011;18610;49.916;8.284;2023-12-22T00:20:45;1.08;;;0.47;;
32096;SDS011;18610;49.916;8.284;2023-12-22T00:23:11;1.55;;;0.43;;
32096;SDS011;18610;49.916;8.284;2023-12-22T00:25:38;1.75;;;0.80;;
32096;SDS011;18610;49.916;8.284;2023-12-22T00:28:06;0.65;;;0.40;;
32096;SDS011;18610;49.916;8.284;2023-12-22T00:30:33;1.88;;;0.55;;
32096;SDS011;18610;49.916;8.284;2023-12-22T00:32:59;3.35;;;0.50;;
32096;SDS011;18610;49.916;8.284;2023-12-22T00:35:26;0.43;;;0.30;;
32096;SDS011;18610;49.916;8.284;2023-12-22T00:37:53;0.57;;;0.52;;
32096;SDS011;18610;49.916;8.284;2023-12-22T00:40:19;1.30;;;0.70;;
32096;SDS011;18610;49.916;8.284;2023-12-22T00:42:46;1.05;;;0.60;;
32096;SDS011;18610;49.916;8.284;2023-12-22T00:45:14;1.42;;;0.32;;
32096;SDS011;18610;49.916;8.284;2023-12-22T00:47:42;3.25;;;1.13;;
32096;SDS011;18610;49.916;8.284;2023-12-22T00:50:08;0.95;;;0.40;;
32096;SDS011;18610;49.916;8.284;2023-12-22T00:52:35;4.47;;;0.30;;
32096;SDS011;18610;49.916;8.284;2023-12-22T00:55:02;3.38;;;0.73;;
32096;SDS011;18610;49.916;8.284;2023-12-22T00:57:29;2.58;;;0.40;;
32096;SDS011;18610;49.916;8.284;2023-12-22T00:59:56;3.10;;;0.50;;
32096;SDS011;18610;49.916;8.284;2023-12-22T01:02:24;1.50;;;0.60;;
32096;SDS011;18610;49.916;8.284;2023-12-22T01:04:50;0.35;;;0.35;;
32096;SDS011;18610;49.916;8.284;2023-12-22T01:07:17;1.20;;;0.60;;
32096;SDS011;18610;49.916;8.284;2023-12-22T01:09:44;5.90;;;0.80;;
32096;SDS011;18610;49.916;8.284;2023-12-22T01:12:11;0.95;;;0.43;;
32096;SDS011;18610;49.916;8.284;2023-12-22T01:14:37;1.58;;;0.60;;
32096;SDS011;18610;49.916;8.284;2023-12-22T01:17:06;0.60;;;0.60;;
32096;SDS011;18610;49.916;8.284;2023-12-22T01:19:34;2.00;;;0.60;;
32096;SDS011;18610;49.916;8.284;2023-12-22T01:22:01;3.50;;;0.60;;
32096;SDS011;18610;49.916;8.284;2023-12-22T01:24:28;2.28;;;0.43;;
32096;SDS011;18610;49.916;8.284;2023-12-22T01:26:55;2.33;;;0.70;;
32096;SDS011;18610;49.916;8.284;2023-12-22T01:29:21;2.33;;;0.65;;
32096;SDS011;18610;49.916;8.284;2023-12-22T01:31:48;0.60;;;0.52;;
32096;SDS011;18610;49.916;8.284;2023-12-22T01:34:14;0.70;;;0.47;;
32096;SDS011;18610;49.916;8.284;2023-12-22T01:36:42;2.63;;;0.68;;
32096;SDS011;18610;49.916;8.284;2023-12-22T01:39:09;6.10;;;0.88;;
32096;SDS011;18610;49.916;8.284;2023-12-22T01:41:36;3.45;;;0.88;;
32096;SDS011;18610;49.916;8.284;2023-12-22T01:44:02;0.98;;;0.60;;
32096;SDS011;18610;49.916;8.284;2023-12-22T01:46:29;2.75;;;0.98;;
32096;SDS011;18610;49.916;8.284;2023-12-22T01:48:57;2.92;;;0.80;;
32096;SDS011;18610;49.916;8.284;2023-12-22T01:51:26;4.60;;;0.70;;
32096;SDS011;18610;49.916;8.284;2023-12-22T01:53:54;1.95;;;0.93;;
32096;SDS011;18610;49.916;8.284;2023-12-22T01:56:21;3.45;;;0.70;;
32096;SDS011;18610;49.916;8.284;2023-12-22T01:58:48;11.15;;;1.55;;
32096;SDS011;18610;49.916;8.284;2023-12-22T02:01:16;4.60;;;0.70;;
32096;SDS011;18610;49.916;8.284;2023-12-22T02:03:43;2.63;;;0.77;;
32096;SDS011;18610;49.916;8.284;2023-12-22T02:06:10;4.53;;;0.80;;
32096;SDS011;18610;49.916;8.284;2023-12-22T02:08:37;2.83;;;0.65;;
32096;SDS011;18610;49.916;8.284;2023-12-22T02:11:06;1.30;;;0.68;;
32096;SDS011;18610;49.916;8.284;2023-12-22T02:13:33;5.25;;;1.05;;
32096;SDS011;18610;49.916;8.284;2023-12-22T02:16:01;5.00;;;0.98;;
32096;SDS011;18610;49.916;8.284;2023-12-22T02:18:32;3.00;;;1.17;;
32096;SDS011;18610;49.916;8.284;2023-12-22T02:21:01;7.30;;;1.70;;
32096;SDS011;18610;49.916;8.284;2023-12-22T02:23:30;4.95;;;1.10;;
32096;SDS011;18610;49.916;8.284;2023-12-22T02:25:57;2.70;;;0.88;;
32096;SDS011;18610;49.916;8.284;2023-12-22T02:28:32;7.40;;;0.95;;
32096;SDS011;18610;49.916;8.284;2023-12-22T02:31:02;5.95;;;1.00;;
32096;SDS011;18610;49.916;8.284;2023-12-22T02:33:33;4.43;;;0.98;;
32096;SDS011;18610;49.916;8.284;2023-12-22T02:36:03;4.30;;;1.17;;
32096;SDS011;18610;49.916;8.284;2023-12-22T02:38:33;3.40;;;0.88;;
32096;SDS011;18610;49.916;8.284;2023-12-22T02:41:01;5.85;;;1.02;;
32096;SDS011;18610;49.916;8.284;2023-12-22T02:43:28;2.90;;;0.80;;
32096;SDS011;18610;49.916;8.284;2023-12-22T02:45:55;3.95;;;1.13;;
32096;SDS011;18610;49.916;8.284;2023-12-22T02:48:22;5.65;;;1.08;;
32096;SDS011;18610;49.916;8.284;2023-12-22T02:50:49;6.30;;;1.02;;
32096;SDS011;18610;49.916;8.284;2023-12-22T02:53:15;8.65;;;1.60;;
32096;SDS011;18610;49.916;8.284;2023-12-22T02:55:43;2.47;;;1.00;;
32096;SDS011;18610;49.916;8.284;2023-12-22T02:58:10;5.20;;;1.02;;
32096;SDS011;18610;49.916;8.284;2023-12-22T03:00:36;7.43;;;1.30;;
32096;SDS011;18610;49.916;8.284;2023-12-22T03:03:03;4.90;;;1.58;;
32096;SDS011;18610;49.916;8.284;2023-12-22T03:05:30;8.63;;;1.48;;
32096;SDS011;18610;49.916;8.284;2023-12-22T03:07:57;12.52;;;1.88;;
32096;SDS011;18610;49.916;8.284;2023-12-22T03:10:23;9.60;;;1.92;;
32096;SDS011;18610;49.916;8.284;2023-12-22T03:12:52;13.52;;;2.35;;
32096;SDS011;18610;49.916;8.284;2023-12-22T03:15:18;16.80;;;2.00;;
32096;SDS011;18610;49.916;8.284;2023-12-22T03:17:45;7.13;;;1.75;;
32096;SDS011;18610;49.916;8.284;2023-12-22T03:20:11;11.75;;;2.47;;
32096;SDS011;18610;49.916;8.284;2023-12-22T03:22:38;10.68;;;1.67;;
32096;SDS011;18610;49.916;8.284;2023-12-22T03:25:05;7.93;;;1.80;;
32096;SDS011;18610;49.916;8.284;2023-12-22T03:27:32;10.18;;;1.70;;
32096;SDS011;18610;49.916;8.284;2023-12-22T03:30:00;10.20;;;1.67;;
32096;SDS011;18610;49.916;8.284;2023-12-22T03:32:28;5.25;;;1.42;;
32096;SDS011;18610;49.916;8.284;2023-12-22T03:34:55;14.88;;;1.48;;
32096;SDS011;18610;49.916;8.284;2023-12-22T03:37:22;7.80;;;1.75;;
32096;SDS011;18610;49.916;8.284;2023-12-22T03:39:48;9.13;;;1.55;;
32096;SDS011;18610;49.916;8.284;2023-12-22T03:42:15;5.28;;;0.88;;
32096;SDS011;18610;49.916;8.284;2023-12-22T03:44:42;3.33;;;0.85;;
32096;SDS011;18610;49.916;8.284;2023-12-22T03:47:10;7.22;;;0.75;;
32096;SDS011;18610;49.916;8.284;2023-12-22T03:49:36;4.20;;;0.95;;
32096;SDS011;18610;49.916;8.284;2023-12-22T03:52:03;2.97;;;1.02;;
32096;SDS011;18610;49.916;8.284;2023-12-22T03:54:30;4.50;;;1.00;;
32096;SDS011;18610;49.916;8.284;2023-12-22T03:56:59;5.20;;;1.55;;
32096;SDS011;18610;49.916;8.284;2023-12-22T03:59:26;3.85;;;0.77;;
32096;SDS011;18610;49.916;8.284;2023-12-22T04:01:53;3.38;;;1.02;;
32096;SDS011;18610;49.916;8.284;2023-12-22T04:04:21;3.05;;;0.90;;
32096;SDS011;18610;49.916;8.284;2023-12-22T04:06:48;7.22;;;1.15;;
32096;SDS011;18610;49.916;8.284;2023-12-22T04:09:16;3.20;;;0.82;;
32096;SDS011;18610;49.916;8.284;2023-12-22T04:11:43;6.32;;;1.05;;
32096;SDS011;18610;49.916;8.284;2023-12-22T04:14:09;7.15;;;1.27;;
32096;SDS011;18610;49.916;8.284;2023-12-22T04:16:36;9.15;;;2.22;;
32096;SDS011;18610;49.916;8.284;2023-12-22T04:19:03;3.25;;;1.08;;
32096;SDS011;18610;49.916;8.284;2023-12-22T04:21:31;6.53;;;1.10;;
32096;SDS011;18610;49.916;8.284;2023-12-22T04:23:58;7.93;;;1.65;;
32096;SDS011;18610;49.916;8.284;2023-12-22T04:26:24;3.83;;;0.75;;
32096;SDS011;18610;49.916;8.284;2023-12-22T04:28:51;4.45;;;1.05;;
32096;SDS011;18610;49.916;8.284;2023-12-22T04:31:18;4.00;;;0.90;;
32096;SDS011;18610;49.916;8.284;2023-12-22T04:33:44;5.82;;;0.68;;
32096;SDS011;18610;49.916;8.284;2023-12-22T04:36:11;4.82;;;1.08;;
32096;SDS011;18610;49.916;8.284;2023-12-22T04:38:39;2.20;;;0.80;;
32096;SDS011;18610;49.916;8.284;2023-12-22T04:41:06;8.73;;;1.17;;
32096;SDS011;18610;49.916;8.284;2023-12-22T04:43:36;3.78;;;0.90;;
32096;SDS011;18610;49.916;8.284;2023-12-22T04:46:03;8.13;;;1.40;;
32096;SDS011;18610;49.916;8.284;2023-12-22T04:48:29;7.57;;;1.10;;
32096;SDS011;18610;49.916;8.284;2023-12-22T04:50:58;1.42;;;0.95;;
32096;SDS011;18610;49.916;8.284;2023-12-22T04:53:24;6.07;;;1.30;;
32096;SDS011;18610;49.916;8.284;2023-12-22T04:55:52;5.50;;;1.42;;
32096;SDS011;18610;49.916;8.284;2023-12-22T04:58:19;9.20;;;1.50;;
32096;SDS011;18610;49.916;8.284;2023-12-22T05:00:46;7.20;;;1.60;;
32096;SDS011;18610;49.916;8.284;2023-12-22T05:03:12;11.60;;;1.73;;
32096;SDS011;18610;49.916;8.284;2023-12-22T05:05:39;14.02;;;1.80;;
32096;SDS011;18610;49.916;8.284;2023-12-22T05:08:06;10.07;;;2.03;;
32096;SDS011;18610;49.916;8.284;2023-12-22T05:10:33;6.53;;;1.40;;
32096;SDS011;18610;49.916;8.284;2023-12-22T05:13:01;5.47;;;1.38;;
32096;SDS011;18610;49.916;8.284;2023-12-22T05:15:28;6.47;;;1.05;;
32096;SDS011;18610;49.916;8.284;2023-12-22T05:17:54;7.30;;;1.20;;
32096;SDS011;18610;49.916;8.284;2023-12-22T05:20:21;7.43;;;1.40;;
32096;SDS011;18610;49.916;8.284;2023-12-22T05:22:47;10.80;;;1.52;;
32096;SDS011;18610;49.916;8.284;2023-12-22T05:25:14;11.55;;;1.42;;
32096;SDS011;18610;49.916;8.284;2023-12-22T05:27:41;9.38;;;1.00;;
32096;SDS011;18610;49.916;8.284;2023-12-22T05:30:10;14.02;;;1.73;;
32096;SDS011;18610;49.916;8.284;2023-12-22T05:32:37;10.07;;;1.15;;
32096;SDS011;18610;49.916;8.284;2023-12-22T05:35:06;5.85;;;1.00;;
32096;SDS011;18610;49.916;8.284;2023-12-22T05:37:35;11.55;;;2.17;;
32096;SDS011;18610;49.916;8.284;2023-12-22T05:40:02;8.20;;;1.20;;
32096;SDS011;18610;49.916;8.284;2023-12-22T05:42:31;7.22;;;1.05;;
32096;SDS011;18610;49.916;8.284;2023-12-22T05:44:58;10.23;;;1.52;;
32096;SDS011;18610;49.916;8.284;2023-12-22T05:47:26;7.80;;;1.50;;
32096;SDS011;18610;49.916;8.284;2023-12-22T05:49:53;4.53;;;1.17;;
32096;SDS011;18610;49.916;8.284;2023-12-22T05:52:19;8.20;;;1.55;;
32096;SDS011;18610;49.916;8.284;2023-12-22T05:54:46;6.40;;;1.25;;
32096;SDS011;18610;49.916;8.284;2023-12-22T05:57:12;11.40;;;1.35;;
32096;SDS011;18610;49.916;8.284;2023-12-22T05:59:39;8.15;;;1.20;;
32096;SDS011;18610;49.916;8.284;2023-12-22T06:02:06;12.73;;;2.00;;
32096;SDS011;18610;49.916;8.284;2023-12-22T06:04:34;9.82;;;1.50;;
32096;SDS011;18610;49.916;8.284;2023-12-22T06:07:01;16.00;;;2.17;;
32096;SDS011;18610;49.916;8.284;2023-12-22T06:09:27;10.45;;;2.03;;
32096;SDS011;18610;49.916;8.284;2023-12-22T06:11:55;11.65;;;2.00;;
32096;SDS011;18610;49.916;8.284;2023-12-22T06:14:22;15.05;;;2.00;;
32096;SDS011;18610;49.916;8.284;2023-12-22T06:16:49;8.23;;;1.42;;
32096;SDS011;18610;49.916;8.284;2023-12-22T06:19:18;4.43;;;1.45;;
32096;SDS011;18610;49.916;8.284;2023-12-22T06:21:47;16.48;;;3.45;;
32096;SDS011;18610;49.916;8.284;2023-12-22T06:24:13;12.98;;;2.47;;
32096;SDS011;18610;49.916;8.284;2023-12-22T06:26:41;14.40;;;2.33;;
32096;SDS011;18610;49.916;8.284;2023-12-22T06:29:08;13.80;;;2.13;;
32096;SDS011;18610;49.916;8.284;2023-12-22T06:31:35;16.25;;;2.53;;
32096;SDS011;18610;49.916;8.284;2023-12-22T06:34:02;10.50;;;2.67;;
32096;SDS011;18610;49.916;8.284;2023-12-22T06:36:29;24.00;;;2.67;;
32096;SDS011;18610;49.916;8.284;2023-12-22T06:38:57;11.73;;;2.20;;
32096;SDS011;18610;49.916;8.284;2023-12-22T06:41:24;13.10;;;2.42;;
32096;SDS011;18610;49.916;8.284;2023-12-22T06:43:51;9.70;;;2.13;;
32096;SDS011;18610;49.916;8.284;2023-12-22T06:46:18;12.73;;;2.30;;
32096;SDS011;18610;49.916;8.284;2023-12-22T06:48:47;13.02;;;2.75;;
32096;SDS011;18610;49.916;8.284;2023-12-22T06:51:17;19.02;;;2.72;;
32096;SDS011;18610;49.916;8.284;2023-12-22T06:53:45;13.02;;;3.30;;
32096;SDS011;18610;49.916;8.284;2023-12-22T06:56:17;22.70;;;2.55;;
32096;SDS011;18610;49.916;8.284;2023-12-22T06:58:46;21.75;;;3.40;;
32096;SDS011;18610;49.916;8.284;2023-12-22T07:01:17;24.15;;;2.95;;
32096;SDS011;18610;49.916;8.284;2023-12-22T07:03:45;21.50;;;3.33;;
32096;SDS011;18610;49.916;8.284;2023-12-22T07:06:13;11.40;;;2.53;;
32096;SDS011;18610;49.916;8.284;2023-12-22T07:08:39;29.05;;;3.00;;
32096;SDS011;18610;49.916;8.284;2023-12-22T07:11:06;14.10;;;2.95;;
32096;SDS011;18610;49.916;8.284;2023-12-22T07:13:34;16.10;;;3.20;;
32096;SDS011;18610;49.916;8.284;2023-12-22T07:16:01;11.40;;;2.10;;
32096;SDS011;18610;49.916;8.284;2023-12-22T07:18:28;13.95;;;2.55;;
32096;SDS011;18610;49.916;8.284;2023-12-22T07:20:55;15.75;;;2.65;;
32096;SDS011;18610;49.916;8.284;2023-12-22T07:23:22;14.48;;;2.92;;
32096;SDS011;18610;49.916;8.284;2023-12-22T07:25:48;12.50;;;2.60;;
32096;SDS011;18610;49.916;8.284;2023-12-22T07:28:15;17.67;;;3.60;;
32096;SDS011;18610;49.916;8.284;2023-12-22T07:30:43;17.88;;;2.97;;
32096;SDS011;18610;49.916;8.284;2023-12-22T07:33:10;24.15;;;3.28;;
32096;SDS011;18610;49.916;8.284;2023-12-22T07:35:36;15.35;;;2.90;;
32096;SDS011;18610;49.916;8.284;2023-12-22T07:38:03;17.15;;;2.85;;
32096;SDS011;18610;49.916;8.284;2023-12-22T07:40:30;18.20;;;3.05;;
32096;SDS011;18610;49.916;8.284;2023-12-22T07:42:56;13.20;;;2.33;;
32096;SDS011;18610;49.916;8.284;2023-12-22T07:45:23;13.45;;;2.38;;
32096;SDS011;18610;49.916;8.284;2023-12-22T07:47:51;25.25;;;9.43;;
32096;SDS011;18610;49.916;8.284;2023-12-22T07:50:18;47.65;;;19.20;;
32096;SDS011;18610;49.916;8.284;2023-12-22T07:52:46;21.10;;;8.02;;
32096;SDS011;18610;49.916;8.284;2023-12-22T07:55:13;13.77;;;4.68;;
32096;SDS011;18610;49.916;8.284;2023-12-22T07:57:39;27.13;;;5.55;;
32096;SDS011;18610;49.916;8.284;2023-12-22T08:00:07;21.05;;;5.88;;
32096;SDS011;18610;49.916;8.284;2023-12-22T08:02:35;17.33;;;3.72;;
32096;SDS011;18610;49.916;8.284;2023-12-22T08:05:03;23.20;;;3.90;;
32096;SDS011;18610;49.916;8.284;2023-12-22T08:07:30;21.85;;;7.10;;
32096;SDS011;18610;49.916;8.284;2023-12-22T08:09:57;24.15;;;6.30;;
32096;SDS011;18610;49.916;8.284;2023-12-22T08:12:24;16.05;;;6.68;;
32096;SDS011;18610;49.916;8.284;2023-12-22T08:14:51;19.92;;;4.88;;
32096;SDS011;18610;49.916;8.284;2023-12-22T08:17:17;34.55;;;12.88;;
32096;SDS011;18610;49.916;8.284;2023-12-22T08:19:44;27.88;;;8.35;;
32096;SDS011;18610;49.916;8.284;2023-12-22T08:22:12;13.98;;;5.97;;
32096;SDS011;18610;49.916;8.284;2023-12-22T08:24:39;14.65;;;4.57;;
32096;SDS011;18610;49.916;8.284;2023-12-22T08:27:06;17.13;;;5.72;;
32096;SDS011;18610;49.916;8.284;2023-12-22T08:29:33;20.10;;;4.35;;
32096;SDS011;18610;49.916;8.284;2023-12-22T08:32:00;17.70;;;5.35;;
32096;SDS011;18610;49.916;8.284;2023-12-22T08:34:27;98.82;;;35.72;;
32096;SDS011;18610;49.916;8.284;2023-12-22T08:36:54;25.55;;;9.23;;
32096;SDS011;18610;49.916;8.284;2023-12-22T08:39:22;34.53;;;15.85;;
32096;SDS011;18610;49.916;8.284;2023-12-22T08:41:50;25.70;;;10.88;;
32096;SDS011;18610;49.916;8.284;2023-12-22T08:44:15;21.90;;;8.23;;
32096;SDS011;18610;49.916;8.284;2023-12-22T08:46:42;24.50;;;9.98;;
32096;SDS011;18610;49.916;8.284;2023-12-22T08:49:09;48.35;;;23.15;;
32096;SDS011;18610;49.916;8.284;2023-12-22T08:51:36;14.95;;;4.90;;
32096;SDS011;18610;49.916;8.284;2023-12-22T08:54:02;14.13;;;5.28;;
32096;SDS011;18610;49.916;8.284;2023-12-22T08:56:31;17.58;;;6.07;;
32096;SDS011;18610;49.916;8.284;2023-12-22T08:59:00;9.65;;;3.20;;
32096;SDS011;18610;49.916;8.284;2023-12-22T09:01:27;20.73;;;6.00;;
32096;SDS011;18610;49.916;8.284;2023-12-22T09:03:53;19.88;;;7.75;;
32096;SDS011;18610;49.916;8.284;2023-12-22T09:06:21;16.40;;;5.10;;
32096;SDS011;18610;49.916;8.284;2023-12-22T09:08:49;21.42;;;8.63;;
32096;SDS011;18610;49.916;8.284;2023-12-22T09:11:16;28.85;;;13.10;;
32096;SDS011;18610;49.916;8.284;2023-12-22T09:13:45;17.83;;;6.13;;
32096;SDS011;18610;49.916;8.284;2023-12-22T09:16:12;27.63;;;9.45;;
32096;SDS011;18610;49.916;8.284;2023-12-22T09:18:40;30.63;;;7.40;;
32096;SDS011;18610;49.916;8.284;2023-12-22T09:21:07;12.93;;;3.20;;
32096;SDS011;18610;49.916;8.284;2023-12-22T09:23:34;32.70;;;11.73;;
32096;SDS011;18610;49.916;8.284;2023-12-22T09:26:00;28.27;;;6.65;;
32096;SDS011;18610;49.916;8.284;2023-12-22T09:28:27;18.77;;;4.25;;
32096;SDS011;18610;49.916;8.284;2023-12-22T09:30:55;21.42;;;6.47;;
32096;SDS011;18610;49.916;8.284;2023-12-22T09:33:22;24.45;;;4.32;;
32096;SDS011;18610;49.916;8.284;2023-12-22T09:35:48;21.92;;;4.72;;
32096;SDS011;18610;49.916;8.284;2023-12-22T09:38:16;28.83;;;4.82;;
32096;SDS011;18610;49.916;8.284;2023-12-22T09:40:42;28.85;;;4.75;;
32096;SDS011;18610;49.916;8.284;2023-12-22T09:43:09;24.88;;;4.38;;
32096;SDS011;18610;49.916;8.284;2023-12-22T09:45:40;31.02;;;8.52;;
32096;SDS011;18610;49.916;8.284;2023-12-22T09:48:09;48.65;;;12.48;;
32096;SDS011;18610;49.916;8.284;2023-12-22T09:50:40;43.95;;;11.43;;
32096;SDS011;18610;49.916;8.284;2023-12-22T09:53:09;41.42;;;13.45;;
32096;SDS011;18610;49.916;8.284;2023-12-22T09:55:36;53.50;;;16.70;;
32096;SDS011;18610;49.916;8.284;2023-12-22T09:58:04;47.13;;;17.10;;
32096;SDS011;18610;49.916;8.284;2023-12-22T10:00:32;108.72;;;35.95;;
32096;SDS011;18610;49.916;8.284;2023-12-22T10:03:00;73.72;;;21.58;;
32096;SDS011;18610;49.916;8.284;2023-12-22T10:05:28;76.97;;;21.58;;
32096;SDS011;18610;49.916;8.284;2023-12-22T10:07:55;114.72;;;30.67;;
32096;SDS011;18610;49.916;8.284;2023-12-22T10:10:22;91.40;;;30.15;;
32096;SDS011;18610;49.916;8.284;2023-12-22T10:12:51;93.65;;;29.27;;
32096;SDS011;18610;49.916;8.284;2023-12-22T10:15:19;51.90;;;17.30;;
32096;SDS011;18610;49.916;8.284;2023-12-22T10:17:48;70.30;;;20.85;;
32096;SDS011;18610;49.916;8.284;2023-12-22T10:20:15;85.28;;;23.88;;
32096;SDS011;18610;49.916;8.284;2023-12-22T10:22:44;52.05;;;16.23;;
32096;SDS011;18610;49.916;8.284;2023-12-22T10:25:11;40.03;;;12.20;;
32096;SDS011;18610;49.916;8.284;2023-12-22T10:27:41;44.70;;;10.52;;
32096;SDS011;18610;49.916;8.284;2023-12-22T10:30:09;41.88;;;8.95;;
32096;SDS011;18610;49.916;8.284;2023-12-22T10:32:39;45.05;;;12.88;;
32096;SDS011;18610;49.916;8.284;2023-12-22T10:35:07;41.33;;;12.20;;
32096;SDS011;18610;49.916;8.284;2023-12-22T10:37:34;38.75;;;13.43;;
32096;SDS011;18610;49.916;8.284;2023-12-22T10:40:04;37.55;;;11.52;;
32096;SDS011;18610;49.916;8.284;2023-12-22T10:42:32;41.90;;;9.82;;
32096;SDS011;18610;49.916;8.284;2023-12-22T10:44:58;38.30;;;8.10;;
32096;SDS011;18610;49.916;8.284;2023-12-22T10:47:25;29.63;;;6.88;;
32096;SDS011;18610;49.916;8.284;2023-12-22T10:49:52;46.63;;;10.23;;
32096;SDS011;18610;49.916;8.284;2023-12-22T10:52:19;48.72;;;16.73;;
32096;SDS011;18610;49.916;8.284;2023-12-22T10:54:45;44.97;;;12.88;;
32096;SDS011;18610;49.916;8.284;2023-12-22T10:57:18;37.85;;;12.07;;
32096;SDS011;18610;49.916;8.284;2023-12-22T10:59:45;49.57;;;18.43;;
32096;SDS011;18610;49.916;8.284;2023-12-22T11:02:15;49.92;;;12.75;;
32096;SDS011;18610;49.916;8.284;2023-12-22T11:04:45;84.40;;;29.60;;
32096;SDS011;18610;49.916;8.284;2023-12-22T11:07:19;38.92;;;12.23;;
32096;SDS011;18610;49.916;8.284;2023-12-22T11:09:49;23.25;;;5.47;;
32096;SDS011;18610;49.916;8.284;2023-12-22T11:12:21;32.65;;;5.60;;
32096;SDS011;18610;49.916;8.284;2023-12-22T11:14:49;23.20;;;4.35;;
32096;SDS011;18610;49.916;8.284;2023-12-22T11:17:18;21.17;;;4.13;;
32096;SDS011;18610;49.916;8.284;2023-12-22T11:19:47;19.92;;;3.95;;
32096;SDS011;18610;49.916;8.284;2023-12-22T11:22:16;21.75;;;4.60;;
32096;SDS011;18610;49.916;8.284;2023-12-22T11:24:45;12.05;;;4.00;;
32096;SDS011;18610;49.916;8.284;2023-12-22T11:27:12;25.38;;;3.40;;
32096;SDS011;18610;49.916;8.284;2023-12-22T11:29:44;20.20;;;4.38;;
32096;SDS011;18610;49.916;8.284;2023-12-22T11:32:15;19.38;;;6.35;;
32096;SDS011;18610;49.916;8.284;2023-12-22T11:34:42;15.88;;;3.33;;
32096;SDS011;18610;49.916;8.284;2023-12-22T11:37:09;17.85;;;2.30;;
32096;SDS011;18610;49.916;8.284;2023-12-22T11:39:38;17.75;;;3.28;;
32096;SDS011;18610;49.916;8.284;2023-12-22T11:42:05;18.40;;;2.65;;
32096;SDS011;18610;49.916;8.284;2023-12-22T11:44:34;17.13;;;3.35;;
32096;SDS011;18610;49.916;8.284;2023-12-22T11:47:06;16.83;;;2.45;;
32096;SDS011;18610;49.916;8.284;2023-12-22T11:49:33;16.00;;;3.15;;
32096;SDS011;18610;49.916;8.284;2023-12-22T11:52:10;12.13;;;2.40;;
32096;SDS011;18610;49.916;8.284;2023-12-22T11:54:44;22.70;;;2.92;;
32096;SDS011;18610;49.916;8.284;2023-12-22T11:57:31;13.05;;;2.88;;
32096;SDS011;18610;49.916;8.284;2023-12-22T12:00:01;14.77;;;2.72;;
32096;SDS011;18610;49.916;8.284;2023-12-22T12:02:32;14.88;;;3.63;;
32096;SDS011;18610;49.916;8.284;2023-12-22T12:05:00;14.10;;;2.95;;
32096;SDS011;18610;49.916;8.284;2023-12-22T12:07:43;14.98;;;3.45;;
32096;SDS011;18610;49.916;8.284;2023-12-22T12:10:12;28.50;;;7.95;;
32096;SDS011;18610;49.916;8.284;2023-12-22T12:13:04;28.02;;;7.85;;
32096;SDS011;18610;49.916;8.284;2023-12-22T12:15:30;11.05;;;3.05;;
32096;SDS011;18610;49.916;8.284;2023-12-22T12:18:01;18.65;;;5.35;;
32096;SDS011;18610;49.916;8.284;2023-12-22T12:20:28;21.63;;;6.93;;
32096;SDS011;18610;49.916;8.284;2023-12-22T12:22:55;34.33;;;12.90;;
32096;SDS011;18610;49.916;8.284;2023-12-22T12:25:22;22.92;;;4.57;;
32096;SDS011;18610;49.916;8.284;2023-12-22T12:27:50;29.50;;;8.32;;
32096;SDS011;18610;49.916;8.284;2023-12-22T12:30:26;27.65;;;8.77;;
32096;SDS011;18610;49.916;8.284;2023-12-22T12:32:53;21.98;;;6.63;;
32096;SDS011;18610;49.916;8.284;2023-12-22T12:35:23;16.48;;;6.60;;
32096;SDS011;18610;49.916;8.284;2023-12-22T12:37:52;21.02;;;7.45;;
32096;SDS011;18610;49.916;8.284;2023-12-22T12:40:19;18.50;;;7.63;;
32096;SDS011;18610;49.916;8.284;2023-12-22T12:42:49;36.95;;;13.82;;
32096;SDS011;18610;49.916;8.284;2023-12-22T12:45:20;11.27;;;3.95;;
32096;SDS011;18610;49.916;8.284;2023-12-22T12:47:54;26.17;;;12.15;;
32096;SDS011;18610;49.916;8.284;2023-12-22T12:50:22;11.48;;;4.78;;
32096;SDS011;18610;49.916;8.284;2023-12-22T12:52:49;10.00;;;4.10;;
32096;SDS011;18610;49.916;8.284;2023-12-22T12:55:16;8.30;;;3.28;;
32096;SDS011;18610;49.916;8.284;2023-12-22T12:57:43;8.15;;;3.83;;
32096;SDS011;18610;49.916;8.284;2023-12-22T13:00:11;19.60;;;8.77;;
32096;SDS011;18610;49.916;8.284;2023-12-22T13:02:38;25.17;;;13.48;;
32096;SDS011;18610;49.916;8.284;2023-12-22T13:05:05;14.52;;;7.82;;
32096;SDS011;18610;49.916;8.284;2023-12-22T13:07:36;7.43;;;4.05;;
32096;SDS011;18610;49.916;8.284;2023-12-22T13:10:03;3.38;;;1.88;;
32096;SDS011;18610;49.916;8.284;2023-12-22T13:12:32;4.20;;;1.73;;
32096;SDS011;18610;49.916;8.284;2023-12-22T13:15:01;3.83;;;2.40;;
32096;SDS011;18610;49.916;8.284;2023-12-22T13:17:28;1.67;;;1.35;;
32096;SDS011;18610;49.916;8.284;2023-12-22T13:19:56;1.30;;;1.17;;
32096;SDS011;18610;49.916;8.284;2023-12-22T13:22:23;4.70;;;1.77;;
32096;SDS011;18610;49.916;8.284;2023-12-22T13:24:57;1.75;;;1.55;;
32096;SDS011;18610;49.916;8.284;2023-12-22T13:27:24;4.43;;;1.65;;
32096;SDS011;18610;49.916;8.284;2023-12-22T13:29:50;6.00;;;1.83;;
32096;SDS011;18610;49.916;8.284;2023-12-22T13:32:19;1.83;;;1.45;;
32096;SDS011;18610;49.916;8.284;2023-12-22T13:34:49;2.05;;;1.20;;
32096;SDS011;18610;49.916;8.284;2023-12-22T13:37:16;3.20;;;1.67;;
32096;SDS011;18610;49.916;8.284;2023-12-22T13:39:43;3.90;;;1.23;;
32096;SDS011;18610;49.916;8.284;2023-12-22T13:42:15;1.98;;;1.45;;
32096;SDS011;18610;49.916;8.284;2023-12-22T13:44:43;2.17;;;1.45;;
32096;SDS011;18610;49.916;8.284;2023-12-22T13:47:12;2.00;;;0.80;;
32096;SDS011;18610;49.916;8.284;2023-12-22T13:49:39;0.82;;;0.77;;
32096;SDS011;18610;49.916;8.284;2023-12-22T13:52:06;2.55;;;0.68;;
32096;SDS011;18610;49.916;8.284;2023-12-22T13:54:33;1.40;;;0.90;;
32096;SDS011;18610;49.916;8.284;2023-12-22T13:57:00;2.88;;;1.45;;
32096;SDS011;18610;49.916;8.284;2023-12-22T13:59:31;2.47;;;1.48;;
32096;SDS011;18610;49.916;8.284;2023-12-22T14:01:58;55.20;;;24.67;;
32096;SDS011;18610;49.916;8.284;2023-12-22T14:04:25;42.17;;;19.20;;
32096;SDS011;18610;49.916;8.284;2023-12-22T14:06:52;25.55;;;10.63;;
32096;SDS011;18610;49.916;8.284;2023-12-22T14:09:19;28.30;;;12.45;;
32096;SDS011;18610;49.916;8.284;2023-12-22T14:11:49;8.05;;;4.70;;
32096;SDS011;18610;49.916;8.284;2023-12-22T14:14:16;3.78;;;2.03;;
32096;SDS011;18610;49.916;8.284;2023-12-22T14:16:45;9.90;;;5.85;;
32096;SDS011;18610;49.916;8.284;2023-12-22T14:19:12;2.55;;;1.92;;
32096;SDS011;18610;49.916;8.284;2023-12-22T14:21:39;0.75;;;0.75;;
32096;SDS011;18610;49.916;8.284;2023-12-22T14:24:06;3.75;;;1.25;;
32096;SDS011;18610;49.916;8.284;2023-12-22T14:26:32;2.72;;;1.65;;
32096;SDS011;18610;49.916;8.284;2023-12-22T14:29:14;3.78;;;1.60;;
32096;SDS011;18610;49.916;8.284;2023-12-22T14:31:41;3.97;;;1.67;;
32096;SDS011;18610;49.916;8.284;2023-12-22T14:34:09;4.30;;;2.92;;
32096;SDS011;18610;49.916;8.284;2023-12-22T14:36:38;4.72;;;1.42;;
32096;SDS011;18610;49.916;8.284;2023-12-22T14:39:05;6.65;;;3.20;;
32096;SDS011;18610;49.916;8.284;2023-12-22T14:41:35;6.97;;;2.47;;